AirNav   Free Bose QuietComfort 20
 
 1288 users online  

2FL6 I-10 Helistop Heliport
Winfield, Florida, USA

GOING TO WINFIELD?


FAA INFORMATION EFFECTIVE 05 DECEMBER 2019

Location

FAA Identifier: 2FL6
Lat/Long: 30-16-23.7000N 082-47-03.8100W
30-16.395000N 082-47.063500W
30.2732500,-82.7843917
(estimated)
Elevation: 125 ft. / 38 m (estimated)
Variation: 05W (2005)
From city: 5 miles NW of WINFIELD, FL
Time zone: UTC -5 (UTC -4 during Daylight Saving Time)
Zip code: 32096

Heliport Operations

Heliport use: Private use. Permission required prior to landing
Activation date: 05/2015
Control tower: no
ARTCC: JACKSONVILLE CENTER
FSS: GAINESVILLE FLIGHT SERVICE STATION
Attendance: CONTINUOUS
Wind indicator: yes
Segmented circle: no

Heliport Communications

WX AWOS-3 at LCQ (12 nm SE): 120.675 (386-754-9366)
WX AWOS-3 at 24J (13 nm W): 118.225 (386-362-1731)
  • APCH/DEP SVC PRVDD BY JACKSONVILLE ARTCC (ZJX) 125.375 (LAKE CITY RCAG).

Nearby radio navigation aids

VOR radial/distance  VOR name  Freq  Var
TAYr224/18.3TAYLOR VORTAC112.9003W
OTKr142/39.8VALDOSTA VOR/DME114.8002W

 
NDB name  Hdg/Dist  Freq  Var  ID
LAKE CITY299/11.920403WLCQ .-.. -.-. --.-

Heliport Services

Runway Information

Helipad H1

Dimensions: 400 x 150 ft. / 122 x 46 m
Surface: concrete, in fair condition
Runway edge lights: PERI
Latitude: 30-16.395000N
Longitude: 082-47.063500W
Elevation: 125.0 ft.
Traffic pattern: leftleft
Markings: none, in fair condition

Heliport Ownership and Management from official FAA records

Ownership: Privately-owned
Owner: SHANDSCAIR
Manager: JASON PATRICK
366 GLASCOCK ST, STE 205
ALCOA, TN 37701
OPERATORS AGENT

Additional Remarks

FOR CD CTC JACKSONVILLE ARTCC AT 904-845-1592.

Instrument Procedures

There are no published instrument procedures at 2FL6.

Some nearby airports with instrument procedures:

KLCQ - Lake City Gateway Airport (12 nm SE)
24J - Suwannee County Airport (13 nm W)
KVLD - Valdosta Regional Airport (40 nm NW)
KCTY - Cross City Airport (42 nm SW)
40J - Perry-Foley Airport (43 nm W)
 
Loc | Ops | Rwys | IFR | FBO | Links
Com | Nav | Svcs | Stats | Notes
Aerial photo
No photo
 
Airport distance calculator
Flying to I-10 Helistop Heliport? Find the distance to fly.

From to 2FL6

Sunrise and sunset
Times for 13-Dec-2019
 Local
(UTC-5)
 Zulu
(UTC)
Morning civil twilight06:5311:53
Sunrise07:2012:20
Sunset17:3122:31
Evening civil twilight17:5722:57

Current date and time
Zulu (UTC)  13-Dec-2019 14:46:46
Local (UTC-5)  13-Dec-2019 09:46:46
 
METAR
KLCQ 
12nm SE 
131435Z AUTO 00000KT 10SM OVC005 12/12 A3002 RMK AO2 P0001
K24J 
13nm W 
131435Z AUTO 00000KT 2 1/2SM BR OVC003 12/12 A3003 RMK A01
TAF
KVLD 
39nm NW 
131122Z 1312/1412 05008KT 5SM -RA BR OVC003 FM132100 11003KT P6SM OVC008 FM140200 17005KT 5SM -TSRA BR OVC005CB FM140600 25005KT P6SM OVC003
KGNV 
43nm SE 
131120Z 1312/1412 VRB04KT 3SM -RA BR OVC003 FM131300 VRB04KT 5SM -RA BR BKN005 OVC010 FM131500 16006KT P6SM VCSH BKN010 OVC020 FM131800 21008KT P6SM VCSH BKN015 OVC030 FM132300 19004KT 6SM BR SCT010 BKN020 OVC030 FM140300 19006KT 3SM BR BKN005 OVC010 FM140800 22012KT 3SM SHRA VCTS BKN010CB OVC020
KVAD 
47nm NW 
131426Z 1314/1415 06009KT 4800 -RA BR OVC003 QNH3000INS BECMG 1320/1321 11009KT 4800 -RA BR OVC003 QNH2980INS TEMPO 1321/1403 11015G25KT 4800 -TSRA OVC005CB BECMG 1402/1403 21007KT 9999 NSW OVC010 QNH2973INS TX17/1321Z TN09/1314Z
KVQQ 
47nm E 
131120Z 1312/1412 VRB04KT 2SM RA BR OVC003 FM131500 14008KT 6SM -SHRA SCT005 BKN010 OVC020 FM131900 22008KT 6SM -SHRA VCTS SCT010 BKN020CB OVC030 FM132300 16006KT 6SM BR SCT010 BKN020 OVC030 FM140300 19006KT 3SM BR BKN005 OVC010 FM140800 22012KT 3SM SHRA VCTS BKN010CB OVC020
NOTAMs
Click for the latest NOTAMs
NOTAMs are issued by the DoD/FAA and will open in a separate window not controlled by AirNav.

 

 
 

Would you like to see your business listed on this page?

 If your business provides an interesting product or service to pilots, flight crews, aircraft, or users of the I-10 Helistop Heliport, you should consider listing it here.  To start the listing process, click on the button below
 
Add a business
 

Other Pages about I-10 Helistop Heliport

Update a link
 
Copyright © AirNav, LLC. All rights reserved. Privacy Policy  Contact